Time;durP1;ratioP1;P1;durP2;ratioP2;P2;SDS_P1;SDS_P2;PMS_P1;PMS_P2;Temp;Humidity;BMP_temperature;BMP_pressure;BME280_temperature;BME280_humidity;BME280_pressure;Samples;Min_cycle;Max_cycle;Signal;HPM_P1;HPM_P2
2020/12/20 05:18:48;;;;;;;1.00;1.00;;;2.90;99.90;;;;;;5377225;23;20527;-76
2020/12/20 05:21:25;;;;;;;1.00;0.80;;;2.90;99.90;;;;;;4897807;29;20040;-76
2020/12/20 05:23:50;;;;;;;0.80;0.80;;;2.90;99.90;;;;;;4884552;29;20388;-76
2020/12/20 05:26:16;;;;;;;1.00;0.90;;;2.80;99.90;;;;;;4897942;29;20091;-75
2020/12/20 05:28:42;;;;;;;1.20;0.90;;;2.80;99.90;;;;;;4890327;29;20057;-82
2020/12/20 05:31:09;;;;;;;1.10;1.00;;;2.80;99.90;;;;;;4892356;29;20387;-80
2020/12/20 05:33:35;;;;;;;0.68;0.68;;;2.80;99.90;;;;;;4884944;29;20031;-79
2020/12/20 05:36:06;;;;;;;0.68;0.68;;;2.80;99.90;;;;;;4886366;29;20063;-83
2020/12/20 05:38:36;;;;;;;1.05;0.70;;;2.80;99.90;;;;;;4896003;29;20511;-82
2020/12/20 05:41:03;;;;;;;0.80;0.80;;;2.80;99.90;;;;;;4897811;29;20013;-83
2020/12/20 05:43:30;;;;;;;2.50;1.00;;;2.90;99.90;;;;;;4884273;29;20115;-72
2020/12/20 05:45:59;;;;;;;0.60;0.60;;;2.90;99.90;;;;;;4888870;29;20469;-79
2020/12/20 05:48:29;;;;;;;2.40;2.00;;;3.00;99.90;;;;;;4893565;29;20033;-86
2020/12/20 05:51:06;;;;;;;11.18;6.85;;;3.00;99.90;;;;;;4897733;29;20039;-86
2020/12/20 05:53:34;;;;;;;137.65;53.28;;;2.90;99.90;;;;;;4897030;29;20119;-84
2020/12/20 05:56:01;;;;;;;488.38;230.50;;;2.90;99.90;;;;;;4896552;29;20036;-80
2020/12/20 05:58:28;;;;;;;380.65;188.63;;;2.90;99.90;;;;;;4896792;29;20166;-84
2020/12/20 06:00:56;;;;;;;48.75;24.63;;;3.00;99.90;;;;;;4894440;29;20035;-77
2020/12/20 06:03:23;;;;;;;3.90;3.53;;;3.00;99.90;;;;;;4895538;29;20029;-77
2020/12/20 06:05:49;;;;;;;3.83;3.53;;;3.00;99.90;;;;;;4880396;29;20036;-77
2020/12/20 06:08:17;;;;;;;2.63;2.45;;;3.00;99.90;;;;;;4890743;29;20028;-77
2020/12/20 06:10:48;;;;;;;113.15;61.47;;;3.00;99.90;;;;;;4896587;29;20024;-76
2020/12/20 06:13:18;;;;;;;26.00;17.15;;;3.00;99.90;;;;;;4889634;29;20076;-77
2020/12/20 06:15:45;;;;;;;;;;;3.00;99.90;;;;;;4887089;29;20481;-76
2020/12/20 06:18:21;;;;;;;3.42;2.70;;;3.00;99.90;;;;;;4895400;29;20406;-78
2020/12/20 06:20:57;;;;;;;4.97;3.20;;;3.00;99.90;;;;;;4889680;29;20107;-85
2020/12/20 06:23:27;;;;;;;3.78;3.47;;;3.00;99.90;;;;;;4889966;29;20044;-83
2020/12/20 06:25:55;;;;;;;2.50;2.30;;;3.00;99.90;;;;;;4873628;29;20033;-78
2020/12/20 06:28:26;;;;;;;1.50;1.40;;;3.00;99.90;;;;;;4878027;29;20021;-79
2020/12/20 06:30:54;;;;;;;0.90;0.90;;;3.10;99.90;;;;;;4878024;29;20497;-86
2020/12/20 06:33:37;;;;;;;1.00;1.00;;;3.10;99.90;;;;;;4865128;29;20511;-87
2020/12/20 06:36:12;;;;;;;0.80;0.80;;;3.10;99.90;;;;;;4890588;29;20069;-87
2020/12/20 06:38:38;;;;;;;1.10;1.00;;;3.20;99.90;;;;;;4885269;29;20045;-87
2020/12/20 06:41:04;;;;;;;0.70;0.70;;;3.20;99.90;;;;;;4896478;29;20035;-85
2020/12/20 06:43:37;;;;;;;0.80;0.80;;;3.30;99.90;;;;;;4870323;29;20032;-86
2020/12/20 06:46:06;;;;;;;0.85;0.80;;;3.30;99.90;;;;;;4896427;29;20040;-85
2020/12/20 06:48:37;;;;;;;0.60;0.60;;;3.30;99.90;;;;;;4883207;29;20136;-86
2020/12/20 06:51:07;;;;;;;0.60;0.60;;;3.30;99.90;;;;;;4896229;29;20028;-86
2020/12/20 06:53:52;;;;;;;0.88;0.85;;;3.20;99.90;;;;;;4887998;29;20044;-87
2020/12/20 06:56:21;;;;;;;0.70;0.70;;;3.30;99.90;;;;;;4871772;29;20123;-87
2020/12/20 06:58:51;;;;;;;0.60;0.60;;;3.20;99.90;;;;;;4891489;29;20033;-87
2020/12/20 07:01:39;;;;;;;0.75;0.75;;;3.30;99.90;;;;;;4889181;29;20024;-75
2020/12/20 07:04:15;;;;;;;0.70;0.70;;;3.30;99.90;;;;;;4866080;29;20040;-80
2020/12/20 07:07:05;;;;;;;1.10;1.10;;;3.30;99.90;;;;;;4878499;29;20063;-81
2020/12/20 07:09:34;;;;;;;7.13;1.97;;;3.30;99.90;;;;;;4887332;29;20056;-78
2020/12/20 07:12:00;;;;;;;17.40;4.30;;;3.50;99.90;;;;;;4890977;29;20267;-81
2020/12/20 07:14:33;;;;;;;7.97;5.10;;;3.80;99.90;;;;;;4877699;29;20092;-87
2020/12/20 07:16:59;;;;;;;33.05;22.40;;;4.10;99.90;;;;;;4879033;29;20037;-75
2020/12/20 07:19:25;;;;;;;28.98;23.35;;;4.00;99.90;;;;;;4887886;29;20053;-77
2020/12/20 07:21:56;;;;;;;4.25;3.15;;;3.90;99.90;;;;;;4882156;29;20029;-76
2020/12/20 07:24:29;;;;;;;1.52;1.10;;;3.80;99.90;;;;;;4873181;29;20392;-77
2020/12/20 07:27:00;;;;;;;1.60;1.20;;;3.70;99.90;;;;;;4878541;29;20068;-75
2020/12/20 07:29:27;;;;;;;2.67;1.10;;;3.60;99.90;;;;;;4878565;29;20054;-81
2020/12/20 07:31:55;;;;;;;0.70;0.70;;;3.70;99.90;;;;;;4876019;29;20549;-87
2020/12/20 07:34:21;;;;;;;1.17;0.90;;;3.60;99.90;;;;;;4877207;29;20032;-82
2020/12/20 07:36:47;;;;;;;1.10;1.05;;;3.50;99.90;;;;;;4883572;29;20567;-77
2020/12/20 07:39:14;;;;;;;4.63;1.80;;;3.50;99.90;;;;;;4883755;29;20165;-78
2020/12/20 07:41:40;;;;;;;2.25;2.05;;;3.50;99.90;;;;;;4890164;29;20112;-73
2020/12/20 07:44:10;;;;;;;1.30;1.20;;;3.50;99.90;;;;;;4885963;29;20047;-73
2020/12/20 07:46:39;;;;;;;0.90;0.90;;;3.50;99.90;;;;;;4891676;29;20157;-73
2020/12/20 07:49:07;;;;;;;1.58;0.70;;;3.50;99.90;;;;;;4880325;29;20068;-76
2020/12/20 07:51:33;;;;;;;1.05;0.88;;;3.50;99.90;;;;;;4899407;29;20032;-74
2020/12/20 07:54:00;;;;;;;0.95;0.80;;;3.50;99.90;;;;;;4899723;29;20031;-75
2020/12/20 07:56:47;;;;;;;1.27;0.90;;;3.50;99.90;;;;;;4880446;29;20039;-75
2020/12/20 07:59:18;;;;;;;0.98;0.90;;;3.50;99.90;;;;;;4880033;29;20033;-75
2020/12/20 08:01:46;;;;;;;1.67;0.80;;;3.50;99.90;;;;;;4880218;29;20032;-75
2020/12/20 08:04:16;;;;;;;0.60;0.60;;;3.50;99.90;;;;;;4886232;29;20029;-75
2020/12/20 08:06:43;;;;;;;;;;;3.50;99.90;;;;;;4878600;29;20029;-75
2020/12/20 08:09:14;;;;;;;0.50;0.50;;;3.40;99.90;;;;;;4873380;29;19908;-77
2020/12/20 08:11:41;;;;;;;0.60;0.60;;;3.40;99.90;;;;;;4872555;29;20048;-77
2020/12/20 08:14:09;;;;;;;0.60;0.60;;;3.40;99.90;;;;;;4867404;29;20438;-75
2020/12/20 08:16:37;;;;;;;0.60;0.60;;;3.40;99.90;;;;;;4880446;29;20057;-74
2020/12/20 08:19:05;;;;;;;0.68;0.68;;;3.40;99.90;;;;;;4876783;29;20137;-74
2020/12/20 08:21:43;;;;;;;3.60;0.80;;;3.40;99.90;;;;;;4873561;29;20043;-74
2020/12/20 08:24:11;;;;;;;0.60;0.60;;;3.40;99.90;;;;;;4878683;29;20116;-74
2020/12/20 08:26:37;;;;;;;0.65;0.65;;;3.40;99.90;;;;;;4880170;29;20430;-74
2020/12/20 08:29:03;;;;;;;1.17;0.80;;;3.40;99.90;;;;;;4879801;29;20033;-74
2020/12/20 08:31:34;;;;;;;0.50;0.50;;;3.40;99.90;;;;;;4893083;29;20037;-75
2020/12/20 08:34:01;;;;;;;0.70;0.70;;;3.40;99.90;;;;;;4891297;29;20051;-75
2020/12/20 08:36:27;;;;;;;0.60;0.60;;;3.50;99.90;;;;;;4872012;29;20176;-74
2020/12/20 08:38:54;;;;;;;0.70;0.70;;;3.50;99.90;;;;;;4898042;29;20060;-74
2020/12/20 08:41:28;;;;;;;0.88;0.70;;;3.50;99.90;;;;;;4890078;29;20024;-73
2020/12/20 08:44:08;;;;;;;0.60;0.60;;;3.50;99.90;;;;;;4878722;29;20374;-74
2020/12/20 08:46:36;;;;;;;0.70;0.70;;;3.50;99.90;;;;;;4886550;29;20501;-72
2020/12/20 08:49:14;;;;;;;0.77;0.73;;;3.60;99.90;;;;;;4866910;29;20650;-72
2020/12/20 08:51:41;;;;;;;0.70;0.60;;;3.60;99.90;;;;;;4879470;29;20033;-72
2020/12/20 08:54:11;;;;;;;0.60;0.60;;;3.50;99.90;;;;;;4866432;29;20384;-72
2020/12/20 08:56:52;;;;;;;2.17;0.73;;;3.60;99.90;;;;;;4887186;29;20016;-73
2020/12/20 08:59:31;;;;;;;2.83;1.30;;;3.60;99.90;;;;;;4870102;29;20191;-73
2020/12/20 09:01:58;;;;;;;1.48;1.00;;;3.50;99.90;;;;;;4876143;29;20014;-72
2020/12/20 09:04:26;;;;;;;1.55;0.82;;;3.50;99.90;;;;;;4879343;29;20393;-72
2020/12/20 09:07:09;;;;;;;1.40;1.10;;;3.60;99.90;;;;;;4871957;29;20029;-74
2020/12/20 09:09:35;;;;;;;1.38;1.20;;;3.50;99.90;;;;;;4879780;29;20029;-74
2020/12/20 09:12:28;;;;;;;0.90;0.90;;;3.50;99.90;;;;;;4879207;29;20505;-73
2020/12/20 09:14:59;;;;;;;1.15;0.77;;;3.50;99.90;;;;;;4893714;29;20399;-74
2020/12/20 09:17:29;;;;;;;2.25;0.90;;;3.60;99.90;;;;;;4893856;29;20044;-74
2020/12/20 09:20:00;;;;;;;1.30;0.75;;;3.60;99.90;;;;;;4883360;29;20472;-73
2020/12/20 09:22:45;;;;;;;0.73;0.73;;;3.50;99.90;;;;;;4878924;29;20145;-75
2020/12/20 09:25:13;;;;;;;1.70;0.90;;;3.60;99.90;;;;;;4878945;29;20057;-73
2020/12/20 09:27:54;;;;;;;0.90;0.90;;;3.60;99.90;;;;;;4893198;29;20488;-73
2020/12/20 09:30:37;;;;;;;1.58;1.25;;;3.60;99.90;;;;;;4888778;29;20455;-73
2020/12/20 09:33:24;;;;;;;1.35;0.90;;;3.60;99.90;;;;;;4892082;29;20036;-73
2020/12/20 09:36:11;;;;;;;1.10;1.00;;;3.60;99.90;;;;;;4878799;29;20488;-77
2020/12/20 09:38:45;;;;;;;0.90;0.90;;;3.60;99.90;;;;;;4867466;29;20044;-78
2020/12/20 09:41:13;;;;;;;2.45;1.05;;;3.60;99.90;;;;;;4892329;29;20024;-78
2020/12/20 09:43:40;;;;;;;1.23;1.02;;;3.60;99.90;;;;;;4897338;29;20029;-78
2020/12/20 09:46:17;;;;;;;1.20;1.10;;;3.60;99.90;;;;;;4885227;29;20031;-79
2020/12/20 09:48:42;;;;;;;1.95;0.95;;;3.70;99.90;;;;;;4866667;29;20041;-78
2020/12/20 09:51:08;;;;;;;2.22;1.48;;;3.70;99.90;;;;;;4890337;29;20024;-77
2020/12/20 09:53:34;;;;;;;1.30;1.20;;;3.70;99.90;;;;;;4884382;29;20036;-78
2020/12/20 09:56:00;;;;;;;1.83;1.20;;;3.80;99.90;;;;;;4887070;29;20027;-79
2020/12/20 09:58:27;;;;;;;1.33;1.10;;;3.80;99.90;;;;;;4878496;29;20049;-78
2020/12/20 10:00:52;;;;;;;2.55;1.17;;;3.80;99.90;;;;;;4886986;29;20032;-78
2020/12/20 10:03:18;;;;;;;1.13;1.02;;;3.80;99.90;;;;;;4882839;29;20051;-78
2020/12/20 10:05:45;;;;;;;3.15;1.10;;;3.80;99.90;;;;;;4883754;29;20449;-80
2020/12/20 10:08:14;;;;;;;2.08;1.60;;;3.80;99.90;;;;;;4884396;29;20028;-76
2020/12/20 10:10:39;;;;;;;1.65;1.38;;;3.80;99.90;;;;;;4870214;29;20036;-78
2020/12/20 10:13:05;;;;;;;2.17;1.20;;;3.80;99.90;;;;;;4886644;29;20025;-81
2020/12/20 10:15:31;;;;;;;1.20;1.10;;;4.40;99.90;;;;;;4882883;29;20124;-83
2020/12/20 10:18:01;;;;;;;2.65;1.08;;;4.40;99.90;;;;;;4900156;29;20093;-81
2020/12/20 10:20:26;;;;;;;2.58;1.42;;;4.30;99.90;;;;;;4881587;29;20029;-85
2020/12/20 10:22:52;;;;;;;1.33;1.10;;;4.20;99.90;;;;;;4878171;29;20036;-85
2020/12/20 10:25:18;;;;;;;2.55;1.20;;;4.10;99.90;;;;;;4891363;29;20049;-84
2020/12/20 10:27:44;;;;;;;1.77;1.00;;;4.00;99.90;;;;;;4885876;29;20036;-84
2020/12/20 10:30:10;;;;;;;2.03;1.23;;;4.00;99.90;;;;;;4895245;29;20033;-85
2020/12/20 10:32:36;;;;;;;3.00;1.30;;;4.00;99.90;;;;;;4895393;29;20029;-85
2020/12/20 10:35:02;;;;;;;1.20;1.10;;;4.00;99.90;;;;;;4872368;29;20081;-81
2020/12/20 10:37:27;;;;;;;2.60;1.10;;;4.00;99.90;;;;;;4874866;29;20091;-81
2020/12/20 10:39:53;;;;;;;2.38;1.20;;;4.00;99.90;;;;;;4871723;29;20026;-81
2020/12/20 10:42:19;;;;;;;2.80;1.30;;;4.00;99.90;;;;;;4884406;29;20031;-85
2020/12/20 10:44:44;;;;;;;2.15;1.35;;;4.00;99.90;;;;;;4876717;29;20025;-85
2020/12/20 10:47:10;;;;;;;2.13;1.25;;;4.10;99.90;;;;;;4873737;29;20374;-83
2020/12/20 10:49:36;;;;;;;3.03;1.55;;;4.20;99.90;;;;;;4874910;29;20021;-83
2020/12/20 10:52:02;;;;;;;2.95;1.30;;;4.20;99.90;;;;;;4886382;29;20033;-77
2020/12/20 10:54:31;;;;;;;1.55;1.35;;;4.10;99.90;;;;;;4889375;29;20052;-80
2020/12/20 10:57:00;;;;;;;4.43;1.65;;;4.10;99.90;;;;;;4886582;29;20025;-77
2020/12/20 10:59:31;;;;;;;2.47;1.40;;;4.10;99.90;;;;;;4890141;29;20033;-77
2020/12/20 11:01:57;;;;;;;1.83;1.67;;;4.10;99.90;;;;;;4889296;29;20092;-75
2020/12/20 11:04:23;;;;;;;3.08;1.88;;;4.00;99.90;;;;;;4888808;29;20534;-76
2020/12/20 11:06:53;;;;;;;3.28;1.70;;;4.00;99.90;;;;;;4891434;29;20476;-75
2020/12/20 11:09:18;;;;;;;1.63;1.52;;;4.00;99.90;;;;;;4869640;29;20052;-75
2020/12/20 11:11:44;;;;;;;3.97;1.60;;;4.00;99.90;;;;;;4881598;29;20421;-76
2020/12/20 11:14:10;;;;;;;3.40;1.70;;;4.00;99.90;;;;;;4871953;29;20560;-76
2020/12/20 11:16:36;;;;;;;2.40;1.55;;;4.00;99.90;;;;;;4874689;29;20116;-75
2020/12/20 11:19:02;;;;;;;2.05;1.50;;;4.00;99.90;;;;;;4864349;29;20053;-76
2020/12/20 11:21:27;;;;;;;7.35;1.98;;;3.90;99.90;;;;;;4886700;29;20090;-76
2020/12/20 11:23:53;;;;;;;4.90;2.15;;;3.90;99.90;;;;;;4881271;29;20029;-75
2020/12/20 11:26:21;;;;;;;7.78;2.00;;;3.90;99.90;;;;;;4880296;29;20120;-77
2020/12/20 11:28:49;;;;;;;2.38;1.50;;;3.90;99.90;;;;;;4894419;29;20017;-77
2020/12/20 11:31:21;;;;;;;1.50;1.30;;;3.90;99.90;;;;;;4892770;29;20033;-76
2020/12/20 11:33:48;;;;;;;1.90;1.60;;;3.90;99.90;;;;;;4893786;29;20373;-75
2020/12/20 11:36:22;;;;;;;3.35;1.60;;;3.90;99.90;;;;;;4894524;29;20048;-75
2020/12/20 11:38:49;;;;;;;2.72;1.83;;;3.90;99.90;;;;;;4884560;29;20044;-75
2020/12/20 11:41:23;;;;;;;8.27;1.98;;;3.90;99.90;;;;;;4893211;29;20151;-77
2020/12/20 11:43:49;;;;;;;2.13;1.23;;;3.90;99.90;;;;;;4874611;29;20062;-82
2020/12/20 11:46:15;;;;;;;5.68;3.25;;;4.10;99.90;;;;;;4886705;29;20025;-86
2020/12/20 11:48:42;;;;;;;4.88;2.10;;;4.70;99.90;;;;;;4875578;29;20051;-73
2020/12/20 11:51:09;;;;;;;3.42;1.85;;;4.60;99.90;;;;;;4873872;29;20036;-76
2020/12/20 11:53:36;;;;;;;7.10;1.92;;;4.50;99.90;;;;;;4878339;29;20037;-76
2020/12/20 11:56:06;;;;;;;8.50;3.55;;;4.50;99.90;;;;;;4877988;29;20037;-76
2020/12/20 11:58:31;;;;;;;3.07;1.70;;;4.40;99.90;;;;;;4869870;29;20042;-76
2020/12/20 12:00:57;;;;;;;6.60;2.13;;;4.30;99.90;;;;;;4869950;29;20029;-76
2020/12/20 12:03:23;;;;;;;3.05;1.90;;;4.20;99.90;;;;;;4870529;29;20507;-76
2020/12/20 12:05:48;;;;;;;2.30;2.00;;;4.20;99.90;;;;;;4867802;29;20037;-76
2020/12/20 12:08:14;;;;;;;5.15;2.08;;;4.10;99.90;;;;;;4873089;29;20029;-76
2020/12/20 12:10:46;;;;;;;3.38;2.30;;;4.10;99.90;;;;;;4868149;29;20386;-76
2020/12/20 12:13:13;;;;;;;3.72;2.47;;;4.10;99.90;;;;;;4872087;29;20488;-76
2020/12/20 12:15:39;;;;;;;5.55;2.35;;;4.10;99.90;;;;;;4876244;29;20028;-76
2020/12/20 12:18:05;;;;;;;3.58;2.60;;;4.10;99.90;;;;;;4870124;29;20366;-76
2020/12/20 12:20:31;;;;;;;2.47;2.10;;;4.10;99.90;;;;;;4872945;29;20553;-76
2020/12/20 12:22:57;;;;;;;3.22;1.77;;;4.10;99.90;;;;;;4880453;29;20120;-76
2020/12/20 12:25:23;;;;;;;6.22;1.88;;;4.10;99.90;;;;;;4872310;29;20195;-76
2020/12/20 12:27:49;;;;;;;3.67;2.10;;;4.10;99.90;;;;;;4877115;29;20053;-76
2020/12/20 12:30:15;;;;;;;4.28;2.05;;;4.00;99.90;;;;;;4880203;29;20029;-76
2020/12/20 12:32:41;;;;;;;5.32;2.13;;;4.10;99.90;;;;;;4879909;29;20033;-76
2020/12/20 12:35:08;;;;;;;7.20;2.00;;;4.10;99.90;;;;;;4880502;29;20032;-76
2020/12/20 12:37:35;;;;;;;5.80;2.10;;;4.70;99.90;;;;;;4870341;29;20048;-76
2020/12/20 12:40:02;;;;;;;4.57;2.42;;;4.70;99.90;;;;;;4873514;29;20017;-77
2020/12/20 12:42:28;;;;;;;3.15;1.98;;;4.60;99.90;;;;;;4881089;29;20040;-78
2020/12/20 12:44:53;;;;;;;5.03;1.77;;;4.80;99.90;;;;;;4870839;29;20022;-80
2020/12/20 12:47:19;;;;;;;4.97;1.83;;;5.30;99.90;;;;;;4871434;29;20029;-81
2020/12/20 12:49:45;;;;;;;2.58;1.92;;;5.10;99.90;;;;;;4886773;29;20033;-90
2020/12/20 12:52:11;;;;;;;3.00;1.92;;;4.90;99.90;;;;;;4869580;29;20056;-85
2020/12/20 12:54:36;;;;;;;5.32;2.13;;;5.00;99.90;;;;;;4880391;29;20036;-83
2020/12/20 12:57:02;;;;;;;4.28;2.00;;;5.20;99.90;;;;;;4869141;29;20231;-84
2020/12/20 12:59:28;;;;;;;3.78;1.90;;;5.00;99.90;;;;;;4873171;29;20073;-86
2020/12/20 13:01:55;;;;;;;2.05;1.35;;;4.80;99.90;;;;;;4873977;29;20029;-86
2020/12/20 13:04:21;;;;;;;4.00;1.30;;;4.70;99.90;;;;;;4877134;29;20434;-86
2020/12/20 13:06:47;;;;;;;4.95;1.58;;;4.70;99.90;;;;;;4883915;29;20096;-86
2020/12/20 13:09:14;;;;;;;2.10;1.55;;;4.70;99.90;;;;;;4882509;29;20508;-82
2020/12/20 13:11:39;;;;;;;2.67;1.88;;;4.60;99.90;;;;;;4873302;29;20026;-84
2020/12/20 13:14:06;;;;;;;2.50;1.60;;;4.60;99.90;;;;;;4862502;29;20029;-86
2020/12/20 13:16:32;;;;;;;1.90;1.42;;;4.60;99.90;;;;;;4872847;29;20088;-87
2020/12/20 13:19:01;;;;;;;2.42;1.77;;;4.60;99.90;;;;;;4879570;29;20196;-80
2020/12/20 13:21:27;;;;;;;2.00;1.80;;;4.60;99.90;;;;;;4882840;29;20029;-77
2020/12/20 13:23:53;;;;;;;3.38;1.60;;;4.60;99.90;;;;;;4888638;29;20514;-78
2020/12/20 13:26:20;;;;;;;3.13;1.90;;;4.60;99.90;;;;;;4880867;29;20033;-75
2020/12/20 13:28:48;;;;;;;1.90;1.80;;;4.60;99.90;;;;;;4878932;29;20034;-79
2020/12/20 13:31:20;;;;;;;2.53;1.60;;;4.60;99.90;;;;;;4868363;29;20058;-83
2020/12/20 13:33:47;;;;;;;1.90;1.25;;;4.60;99.90;;;;;;4866311;29;20581;-83
2020/12/20 13:36:13;;;;;;;2.60;1.55;;;4.60;99.90;;;;;;4877122;29;20175;-82
2020/12/20 13:38:39;;;;;;;2.65;1.60;;;4.60;99.90;;;;;;4865010;29;20037;-81
2020/12/20 13:41:05;;;;;;;3.60;1.60;;;4.60;99.90;;;;;;4869864;29;20488;-82
2020/12/20 13:43:32;;;;;;;2.03;1.50;;;4.60;99.90;;;;;;4875168;29;20112;-78
2020/12/20 13:45:59;;;;;;;3.15;1.50;;;4.60;99.90;;;;;;4882684;29;20021;-79
2020/12/20 13:48:25;;;;;;;4.78;1.50;;;4.50;99.90;;;;;;4888045;29;20385;-78
2020/12/20 13:50:51;;;;;;;5.75;1.60;;;4.60;99.90;;;;;;4884420;29;20032;-78
2020/12/20 13:53:16;;;;;;;6.03;1.60;;;4.60;99.90;;;;;;4888648;29;20032;-77
2020/12/20 13:55:42;;;;;;;3.13;1.83;;;4.60;99.90;;;;;;4887333;29;20028;-78
2020/12/20 13:58:08;;;;;;;6.95;1.67;;;4.60;99.90;;;;;;4889314;29;20052;-77
2020/12/20 14:00:37;;;;;;;6.75;1.58;;;4.60;99.90;;;;;;4886441;29;20054;-77
2020/12/20 14:03:03;;;;;;;4.28;1.70;;;4.60;99.90;;;;;;4878550;29;20034;-75
2020/12/20 14:05:29;;;;;;;3.20;1.60;;;4.60;99.90;;;;;;4874836;29;20077;-77
2020/12/20 14:07:55;;;;;;;3.58;2.35;;;4.60;99.90;;;;;;4873998;29;20458;-75
2020/12/20 14:10:21;;;;;;;7.28;1.90;;;4.60;99.90;;;;;;4883558;29;20075;-76
2020/12/20 14:12:46;;;;;;;4.07;1.73;;;4.60;99.90;;;;;;4881898;29;20405;-75
2020/12/20 14:15:12;;;;;;;2.17;1.60;;;4.60;99.90;;;;;;4876398;29;20104;-77
2020/12/20 14:17:38;;;;;;;3.10;1.63;;;4.60;99.90;;;;;;4872742;29;20067;-77
2020/12/20 14:20:08;;;;;;;2.72;1.60;;;4.60;99.90;;;;;;4864808;29;20029;-77
2020/12/20 14:22:33;;;;;;;2.60;1.30;;;4.60;99.90;;;;;;4877875;29;20051;-77
2020/12/20 14:24:59;;;;;;;2.75;1.60;;;4.60;99.90;;;;;;4882153;29;20035;-78
2020/12/20 14:27:25;;;;;;;2.63;1.90;;;4.60;99.90;;;;;;4862670;29;20152;-78
2020/12/20 14:29:51;;;;;;;3.60;1.50;;;4.60;99.90;;;;;;4891182;29;20029;-83
2020/12/20 14:32:17;;;;;;;1.83;1.58;;;4.60;99.90;;;;;;4878376;29;20232;-82
2020/12/20 14:34:43;;;;;;;3.40;1.85;;;4.60;99.90;;;;;;4876615;29;20151;-81
2020/12/20 14:37:09;;;;;;;4.00;1.80;;;4.60;99.90;;;;;;4877911;29;20098;-80
2020/12/20 14:39:37;;;;;;;2.60;1.38;;;4.60;99.90;;;;;;4878333;29;20496;-82
2020/12/20 14:42:03;;;;;;;3.17;1.70;;;4.60;99.90;;;;;;4878261;29;20036;-87
2020/12/20 14:44:29;;;;;;;5.55;1.83;;;4.70;99.90;;;;;;4878166;29;20056;-81
2020/12/20 14:46:56;;;;;;;1.95;1.60;;;4.70;99.90;;;;;;4890908;29;20393;-80
2020/12/20 14:49:22;;;;;;;6.25;3.22;;;4.60;99.90;;;;;;4889527;29;20492;-84
2020/12/20 14:51:48;;;;;;;9.98;1.67;;;4.60;99.90;;;;;;4879667;29;20068;-86
2020/12/20 14:54:13;;;;;;;2.30;1.58;;;4.60;99.90;;;;;;4877994;29;20069;-80
2020/12/20 14:56:39;;;;;;;2.38;1.50;;;4.60;99.90;;;;;;4875626;29;20117;-82
2020/12/20 14:59:05;;;;;;;2.22;1.50;;;4.60;99.90;;;;;;4885434;29;20044;-80
2020/12/20 15:01:31;;;;;;;2.53;1.42;;;4.60;99.90;;;;;;4882716;29;20033;-81
2020/12/20 15:03:57;;;;;;;5.90;1.80;;;4.60;99.90;;;;;;4873608;29;20029;-82
2020/12/20 15:06:23;;;;;;;2.17;1.60;;;4.60;99.90;;;;;;4875415;29;20164;-80
2020/12/20 15:08:49;;;;;;;3.25;1.75;;;4.60;99.90;;;;;;4873012;29;20074;-80
2020/12/20 15:11:15;;;;;;;2.47;1.85;;;4.60;99.90;;;;;;4878084;29;20032;-80
2020/12/20 15:13:41;;;;;;;3.63;1.52;;;4.60;99.90;;;;;;4873131;29;20068;-80
2020/12/20 15:16:11;;;;;;;2.53;1.70;;;4.60;99.90;;;;;;4875284;29;20064;-80
2020/12/20 15:18:37;;;;;;;2.55;1.60;;;4.60;99.90;;;;;;4874209;29;20057;-74
2020/12/20 15:21:04;;;;;;;4.00;1.80;;;4.60;99.90;;;;;;4874511;29;20686;-72
2020/12/20 15:23:30;;;;;;;2.22;1.40;;;4.70;99.90;;;;;;4867561;29;20036;-74
2020/12/20 15:25:56;;;;;;;1.83;1.63;;;5.00;99.90;;;;;;4865496;29;20032;-74
2020/12/20 15:28:22;;;;;;;2.97;1.73;;;4.90;99.90;;;;;;4877917;29;20021;-79
2020/12/20 15:30:48;;;;;;;5.45;1.75;;;4.90;99.90;;;;;;4877553;29;20037;-79
2020/12/20 15:33:14;;;;;;;4.20;2.10;;;4.80;99.90;;;;;;4877738;29;20033;-79
2020/12/20 15:35:41;;;;;;;1.85;1.35;;;4.80;99.90;;;;;;4877411;29;20481;-78
2020/12/20 15:38:07;;;;;;;1.95;1.58;;;4.70;99.90;;;;;;4877356;29;20043;-78
2020/12/20 15:40:33;;;;;;;2.22;1.42;;;4.70;99.90;;;;;;4877380;29;20104;-78
2020/12/20 15:42:59;;;;;;;4.15;1.70;;;4.70;99.90;;;;;;4876248;29;20120;-78
2020/12/20 15:45:25;;;;;;;3.88;1.77;;;4.70;99.90;;;;;;4877445;29;20029;-83
2020/12/20 15:47:51;;;;;;;5.80;1.60;;;4.70;99.90;;;;;;4877809;29;20431;-83
2020/12/20 15:50:17;;;;;;;2.22;1.58;;;4.70;99.90;;;;;;4877423;29;20032;-83
2020/12/20 15:52:43;;;;;;;6.18;1.70;;;4.70;99.90;;;;;;4877469;29;20177;-83
2020/12/20 15:55:13;;;;;;;4.55;2.00;;;4.70;99.90;;;;;;4894035;29;20064;-83
2020/12/20 15:57:39;;;;;;;2.70;1.60;;;4.70;99.90;;;;;;4897859;29;20056;-82
2020/12/20 16:00:08;;;;;;;8.98;2.05;;;4.70;99.90;;;;;;4890958;29;20447;-81
2020/12/20 16:02:35;;;;;;;25.48;6.15;;;4.70;99.90;;;;;;4889670;29;20792;-78
2020/12/20 16:05:02;;;;;;;6.65;1.85;;;7.00;99.90;;;;;;4877447;29;20482;-79
2020/12/20 16:07:27;;;;;;;4.68;1.92;;;8.80;99.90;;;;;;4878886;29;20388;-80
2020/12/20 16:09:53;;;;;;;3.78;2.00;;;8.60;99.90;;;;;;4880810;29;20100;-76
2020/12/20 16:12:19;;;;;;;7.60;1.80;;;7.90;99.90;;;;;;4882245;29;20043;-76
2020/12/20 16:14:45;;;;;;;4.93;1.35;;;7.20;99.90;;;;;;4882463;29;20029;-77
2020/12/20 16:17:13;;;;;;;3.10;1.80;;;6.60;99.90;;;;;;4878389;29;20513;-77
2020/12/20 16:19:39;;;;;;;2.88;1.40;;;6.20;99.90;;;;;;4872701;29;20061;-79
2020/12/20 16:22:05;;;;;;;4.20;2.15;;;5.90;99.90;;;;;;4877384;29;20108;-78
2020/12/20 16:24:30;;;;;;;7.82;1.55;;;5.70;99.90;;;;;;4868267;29;20094;-79
2020/12/20 16:26:56;;;;;;;2.10;1.42;;;5.50;99.90;;;;;;4870792;29;20025;-79
2020/12/20 16:29:23;;;;;;;2.65;1.83;;;5.40;99.90;;;;;;4880103;29;20065;-80
2020/12/20 16:31:57;;;;;;;4.20;2.00;;;5.30;99.90;;;;;;4887313;29;20480;-80
2020/12/20 16:34:33;;;;;;;2.17;1.65;;;5.20;99.90;;;;;;4883830;29;20043;-80
2020/12/20 16:37:00;;;;;;;3.83;2.05;;;5.20;99.90;;;;;;4879994;29;20077;-81
2020/12/20 16:39:28;;;;;;;2.35;1.55;;;5.10;99.90;;;;;;4880030;29;20112;-79
2020/12/20 16:41:54;;;;;;;3.42;1.63;;;5.10;99.90;;;;;;4878687;29;20025;-79
2020/12/20 16:44:21;;;;;;;3.17;1.70;;;5.00;99.90;;;;;;4879952;29;20152;-79
2020/12/20 16:46:49;;;;;;;3.10;1.48;;;5.00;99.90;;;;;;4884203;29;20024;-78
2020/12/20 16:49:15;;;;;;;2.15;1.17;;;4.90;99.90;;;;;;4888267;29;20057;-78
2020/12/20 16:51:42;;;;;;;2.88;1.67;;;4.90;99.90;;;;;;4879642;29;20027;-77
2020/12/20 16:54:09;;;;;;;3.13;1.70;;;4.90;99.90;;;;;;4888266;29;20104;-79
2020/12/20 16:56:36;;;;;;;8.52;1.80;;;4.90;99.90;;;;;;4878141;29;20426;-84
2020/12/20 16:59:03;;;;;;;5.88;2.13;;;4.90;99.90;;;;;;4866820;29;20112;-80
2020/12/20 17:01:29;;;;;;;9.43;2.67;;;4.90;99.90;;;;;;4878159;29;20446;-79
2020/12/20 17:03:56;;;;;;;4.80;1.85;;;5.00;99.90;;;;;;4881709;29;20057;-79
2020/12/20 17:06:22;;;;;;;3.22;1.80;;;5.00;99.90;;;;;;4878891;29;20017;-78
2020/12/20 17:08:48;;;;;;;5.85;1.70;;;4.90;99.90;;;;;;4876573;29;20017;-80
2020/12/20 17:11:16;;;;;;;3.45;1.60;;;4.90;99.90;;;;;;4878141;29;20025;-82
2020/12/20 17:13:43;;;;;;;1.92;1.73;;;4.90;99.90;;;;;;4876661;29;20021;-82
2020/12/20 17:16:10;;;;;;;5.63;1.60;;;4.80;99.90;;;;;;4886409;29;20107;-82
2020/12/20 17:18:40;;;;;;;2.65;1.40;;;4.80;99.90;;;;;;4891672;29;20045;-82
2020/12/20 17:21:13;;;;;;;3.83;1.70;;;4.80;99.90;;;;;;4879407;29;20085;-85
2020/12/20 17:23:39;;;;;;;3.17;1.33;;;4.80;99.90;;;;;;4879199;29;20061;-84
2020/12/20 17:26:05;;;;;;;2.70;1.45;;;4.80;99.90;;;;;;4879483;29;20684;-84
2020/12/20 17:28:31;;;;;;;2.22;1.40;;;4.70;99.90;;;;;;4886891;29;20064;-84
2020/12/20 17:30:58;;;;;;;7.78;1.52;;;4.70;99.90;;;;;;4884449;29;20025;-84
2020/12/20 17:33:24;;;;;;;3.13;1.88;;;5.00;99.90;;;;;;4879316;29;20033;-83
2020/12/20 17:35:50;;;;;;;4.45;1.50;;;5.00;99.90;;;;;;4877816;29;20815;-84
2020/12/20 17:38:19;;;;;;;4.72;1.30;;;4.90;99.90;;;;;;4878997;29;20033;-85
2020/12/20 17:40:45;;;;;;;3.25;1.70;;;4.90;99.90;;;;;;4879112;29;20072;-84
2020/12/20 17:43:12;;;;;;;3.80;2.28;;;4.80;99.90;;;;;;4896705;29;20060;-75
2020/12/20 17:45:41;;;;;;;24.95;16.85;;;4.80;99.90;;;;;;4887597;29;20029;-79
2020/12/20 17:48:08;;;;;;;10.20;6.57;;;5.00;99.90;;;;;;4879093;29;20030;-79
2020/12/20 17:50:33;;;;;;;5.93;2.28;;;5.10;99.90;;;;;;4878642;29;20107;-82
2020/12/20 17:52:59;;;;;;;2.03;1.48;;;5.00;99.90;;;;;;4883003;29;20156;-78
2020/12/20 17:55:25;;;;;;;25.83;13.32;;;5.00;99.90;;;;;;4890350;29;20175;-76
2020/12/20 17:57:51;;;;;;;16.23;7.80;;;5.20;99.90;;;;;;4870147;29;20931;-74
2020/12/20 18:00:17;;;;;;;10.18;3.13;;;6.60;99.90;;;;;;4871403;29;20029;-74
2020/12/20 18:02:42;;;;;;;2.35;1.38;;;6.80;99.90;;;;;;4871638;29;20485;-75
2020/12/20 18:05:08;;;;;;;5.68;4.53;;;6.50;99.90;;;;;;4878448;29;20029;-74
2020/12/20 18:07:34;;;;;;;8.00;5.57;;;6.00;99.90;;;;;;4873269;29;20054;-73
2020/12/20 18:10:04;;;;;;;3.97;2.22;;;5.70;99.90;;;;;;4875918;29;20029;-74
2020/12/20 18:12:30;;;;;;;4.82;1.60;;;5.60;99.90;;;;;;4873321;29;20101;-74
2020/12/20 18:14:56;;;;;;;2.70;2.03;;;5.50;99.90;;;;;;4875904;29;20104;-74
2020/12/20 18:17:22;;;;;;;6.90;1.80;;;5.40;99.90;;;;;;4878014;29;20059;-74